createdAt,value
2019-03-10T00:00:22.923Z,73.85
2019-03-10T00:01:22.940Z,74.04
2019-03-10T00:02:22.692Z,74.04
2019-03-10T00:03:22.976Z,74.04
2019-03-10T00:04:22.997Z,74.04
2019-03-10T00:05:22.748Z,73.57
2019-03-10T00:06:22.769Z,74.04
2019-03-10T00:07:23.048Z,73.57
2019-03-10T00:08:23.066Z,73.66
2019-03-10T00:09:23.085Z,73.57
2019-03-10T00:10:23.111Z,73.57
2019-03-10T00:11:22.861Z,73.66
2019-03-10T00:12:22.893Z,73.76
2019-03-10T00:13:22.896Z,74.04
2019-03-10T00:14:23.178Z,73.57
2019-03-10T00:15:22.934Z,73.57
2019-03-10T00:16:22.953Z,73.76
2019-03-10T00:17:22.971Z,73.66
2019-03-10T00:18:23.253Z,73.57
2019-03-10T00:19:23.008Z,73.76
2019-03-10T00:20:23.027Z,73.66
2019-03-10T00:21:23.311Z,73.66
2019-03-10T00:22:23.330Z,73.76
2019-03-10T00:23:23.086Z,73.66
2019-03-10T00:24:23.103Z,73.66
2019-03-10T00:25:23.436Z,73.76
2019-03-10T00:26:23.639Z,73.57
2019-03-10T00:27:23.162Z,73.66
2019-03-10T00:28:23.179Z,73.66
2019-03-10T00:29:23.464Z,73.76
2019-03-10T00:30:23.474Z,74.04
2019-03-10T00:31:23.236Z,73.66
2019-03-10T00:32:23.524Z,73.76
2019-03-10T00:33:23.549Z,73.66
2019-03-10T00:34:23.548Z,73.66
2019-03-10T00:35:23.305Z,73.76
2019-03-10T00:36:23.590Z,73.85
2019-03-10T00:37:23.606Z,73.57
2019-03-10T00:38:23.623Z,73.66
2019-03-10T00:39:23.376Z,73.57
2019-03-10T00:40:23.670Z,74.04
2019-03-10T00:41:23.675Z,73.66
2019-03-10T00:42:23.434Z,73.66
2019-03-10T00:43:23.711Z,73.66
2019-03-10T00:44:23.737Z,73.66
2019-03-10T00:45:23.488Z,73.66
2019-03-10T00:46:23.774Z,73.66
2019-03-10T00:47:23.530Z,73.76
2019-03-10T00:48:23.545Z,73.76
2019-03-10T00:49:23.825Z,73.66
2019-03-10T00:50:23.845Z,73.66
2019-03-10T00:51:23.603Z,73.85
2019-03-10T00:52:23.620Z,73.76
2019-03-10T00:53:23.637Z,74.14
2019-03-10T00:54:23.658Z,73.66
2019-03-10T00:55:23.676Z,73.66
2019-03-10T00:56:23.693Z,74.14
2019-03-10T00:57:23.976Z,74.04
2019-03-10T00:58:23.995Z,74.14
2019-03-10T00:59:23.750Z,73.57
2019-03-10T01:00:23.918Z,74.14
2019-03-10T01:01:23.787Z,73.66
2019-03-10T01:02:23.810Z,74.04
2019-03-10T01:03:23.823Z,74.14
2019-03-10T01:04:24.104Z,74.04
2019-03-10T01:05:23.865Z,74.04
2019-03-10T01:06:23.885Z,73.85
2019-03-10T01:07:24.166Z,74.04
2019-03-10T01:08:23.913Z,73.85
2019-03-10T01:09:23.942Z,74.04
2019-03-10T01:10:24.218Z,74.04
2019-03-10T01:11:23.975Z,74.04
2019-03-10T01:12:24.017Z,73.95
2019-03-10T01:13:24.270Z,73.95
2019-03-10T01:14:24.293Z,74.04
2019-03-10T01:15:24.046Z,74.04
2019-03-10T01:16:24.070Z,74.04
2019-03-10T01:17:24.346Z,73.85
2019-03-10T01:18:24.365Z,74.04
2019-03-10T01:19:24.123Z,73.95
2019-03-10T01:20:24.140Z,73.85
2019-03-10T01:21:24.418Z,73.85
2019-03-10T01:22:24.440Z,73.95
2019-03-10T01:23:24.195Z,73.85
2019-03-10T01:24:24.477Z,73.85
2019-03-10T01:25:24.501Z,73.95
2019-03-10T01:26:24.510Z,73.85
2019-03-10T01:27:24.276Z,73.76
2019-03-10T01:28:24.289Z,73.76
2019-03-10T01:29:24.616Z,74.14
2019-03-10T01:30:24.591Z,73.76
2019-03-10T01:31:24.343Z,74.04
2019-03-10T01:32:24.624Z,74.04
2019-03-10T01:33:24.642Z,74.14
2019-03-10T01:34:24.398Z,73.28
2019-03-10T01:35:24.680Z,74.14
2019-03-10T01:36:24.700Z,74.14
2019-03-10T01:37:24.722Z,74.14
2019-03-10T01:38:24.470Z,74.04
2019-03-10T01:39:24.491Z,74.14
2019-03-10T01:40:25.070Z,73.38
2019-03-10T01:41:24.789Z,74.04
2019-03-10T01:42:24.549Z,74.24
2019-03-10T01:43:24.562Z,74.14
2019-03-10T01:44:24.876Z,73.66
2019-03-10T01:45:24.865Z,74.14
2019-03-10T01:46:24.621Z,73.57
2019-03-10T01:47:24.639Z,73.57
2019-03-10T01:48:24.919Z,73.66
2019-03-10T01:49:24.938Z,74.04
2019-03-10T01:50:24.695Z,73.66
2019-03-10T01:51:24.714Z,73.95
2019-03-10T01:52:24.995Z,73.57
2019-03-10T01:53:28.112Z,73.57
2019-03-10T01:54:25.305Z,73.66
2019-03-10T01:55:25.056Z,73.66
2019-03-10T01:56:24.861Z,74.14
2019-03-10T01:57:25.084Z,74.04
2019-03-10T01:58:25.107Z,73.57
2019-03-10T01:59:24.863Z,73.66
2019-03-10T02:00:24.890Z,74.04
2019-03-10T02:01:25.159Z,73.57
2019-03-10T02:02:27.995Z,73.66
2019-03-10T02:03:24.934Z,74.14
2019-03-10T02:04:25.238Z,73.76
2019-03-10T02:05:25.235Z,73.47
2019-03-10T02:06:25.252Z,73.66
2019-03-10T02:07:25.274Z,73.47
2019-03-10T02:08:25.026Z,73.95
2019-03-10T02:09:25.309Z,73.95
2019-03-10T02:10:25.329Z,73.47
2019-03-10T02:11:25.087Z,73.95
2019-03-10T02:12:25.100Z,73.66
2019-03-10T02:13:25.122Z,73.57
2019-03-10T02:14:25.401Z,73.76
2019-03-10T02:15:25.438Z,73.66
2019-03-10T02:16:25.536Z,73.66
2019-03-10T02:17:25.195Z,73.85
2019-03-10T02:18:25.472Z,73.85
2019-03-10T02:19:25.231Z,73.95
2019-03-10T02:20:25.249Z,73.85
2019-03-10T02:21:25.529Z,73.95
2019-03-10T02:22:25.283Z,73.57
2019-03-10T02:23:25.575Z,73.95
2019-03-10T02:24:26.696Z,73.95
2019-03-10T02:25:25.608Z,73.47
2019-03-10T02:26:25.394Z,73.66
2019-03-10T02:27:25.378Z,73.95
2019-03-10T02:28:25.657Z,73.57
2019-03-10T02:29:25.693Z,73.57
2019-03-10T02:30:25.733Z,73.95
2019-03-10T02:31:25.716Z,73.57
2019-03-10T02:32:25.479Z,73.95
2019-03-10T02:33:25.493Z,73.95
2019-03-10T02:34:25.622Z,73.85
2019-03-10T02:35:25.792Z,73.85
2019-03-10T02:36:25.814Z,73.85
2019-03-10T02:37:25.829Z,73.85
2019-03-10T02:38:25.581Z,73.95
2019-03-10T02:39:25.600Z,73.66
2019-03-10T02:40:25.895Z,73.95
2019-03-10T02:41:25.641Z,73.66
2019-03-10T02:42:25.925Z,73.85
2019-03-10T02:43:25.944Z,73.85
2019-03-10T02:44:25.699Z,73.85
2019-03-10T02:45:25.819Z,73.95
2019-03-10T02:46:25.732Z,73.85
2019-03-10T02:47:26.010Z,73.85
2019-03-10T02:48:26.054Z,73.85
2019-03-10T02:49:26.047Z,73.85
2019-03-10T02:50:25.806Z,73.66
2019-03-10T02:51:26.094Z,73.85
2019-03-10T02:52:26.195Z,73.85
2019-03-10T02:53:25.872Z,73.85
2019-03-10T02:54:26.144Z,73.76
2019-03-10T02:55:26.161Z,73.66
2019-03-10T02:56:26.190Z,73.85
2019-03-10T02:57:26.193Z,73.95
2019-03-10T02:58:25.950Z,73.85
2019-03-10T02:59:25.970Z,73.76
2019-03-10T03:00:25.996Z,73.76
2019-03-10T03:01:26.271Z,73.66
2019-03-10T03:02:26.291Z,73.38
2019-03-10T03:03:26.043Z,73.95
2019-03-10T03:04:26.064Z,73.95
2019-03-10T03:05:26.367Z,73.38
2019-03-10T03:06:26.098Z,73.28
2019-03-10T03:07:26.114Z,73.47
2019-03-10T03:08:26.398Z,73.85
2019-03-10T03:09:26.435Z,73.95
2019-03-10T03:10:26.436Z,73.66
2019-03-10T03:11:26.457Z,73.76
2019-03-10T03:12:26.472Z,73.95
2019-03-10T03:13:26.228Z,73.47
2019-03-10T03:14:26.525Z,73.66
2019-03-10T03:15:26.531Z,73.85
2019-03-10T03:16:26.284Z,73.47
2019-03-10T03:17:26.565Z,73.76
2019-03-10T03:18:26.588Z,73.76
2019-03-10T03:19:26.599Z,73.85
2019-03-10T03:20:26.356Z,73.95
2019-03-10T03:21:26.382Z,73.95
2019-03-10T03:22:26.662Z,73.95
2019-03-10T03:23:26.672Z,73.85
2019-03-10T03:24:26.697Z,73.95
2019-03-10T03:25:26.730Z,73.57
2019-03-10T03:26:26.471Z,73.57
2019-03-10T03:27:26.487Z,73.95
2019-03-10T03:28:26.509Z,73.95
2019-03-10T03:29:26.790Z,73.95
2019-03-10T03:30:26.813Z,73.95
2019-03-10T03:31:26.840Z,73.57
2019-03-10T03:32:26.847Z,73.95
2019-03-10T03:33:26.861Z,73.95
2019-03-10T03:34:26.621Z,73.85
2019-03-10T03:35:26.643Z,73.85
2019-03-10T03:36:26.649Z,73.85
2019-03-10T03:37:26.989Z,73.95
2019-03-10T03:38:26.954Z,73.57
2019-03-10T03:39:26.983Z,73.57
2019-03-10T03:40:26.984Z,73.57
2019-03-10T03:41:26.765Z,73.57
2019-03-10T03:42:27.023Z,73.47
2019-03-10T03:43:26.785Z,73.66
2019-03-10T03:44:26.815Z,73.57
2019-03-10T03:45:26.822Z,73.57
2019-03-10T03:46:26.839Z,73.76
2019-03-10T03:47:27.116Z,73.66
2019-03-10T03:48:27.132Z,74.14
2019-03-10T03:49:27.167Z,74.14
2019-03-10T03:50:27.173Z,74.04
2019-03-10T03:51:27.190Z,74.14
2019-03-10T03:52:27.210Z,74.14
2019-03-10T03:53:26.973Z,73.38
2019-03-10T03:54:26.985Z,73.57
2019-03-10T03:55:27.022Z,74.04
2019-03-10T03:56:27.015Z,73.57
2019-03-10T03:57:27.036Z,74.24
2019-03-10T03:58:27.057Z,74.24
2019-03-10T03:59:27.084Z,73.57
2019-03-10T04:00:27.094Z,73.76
2019-03-10T04:01:27.111Z,73.66
2019-03-10T04:02:27.165Z,73.47
2019-03-10T04:03:27.143Z,73.66
2019-03-10T04:04:27.165Z,74.14
2019-03-10T04:05:27.280Z,73.95
2019-03-10T04:06:27.205Z,73.66
2019-03-10T04:07:27.217Z,74.24
2019-03-10T04:08:27.235Z,74.14
2019-03-10T04:09:27.519Z,73.76
2019-03-10T04:10:27.539Z,74.04
2019-03-10T04:11:27.570Z,74.14
2019-03-10T04:12:27.575Z,74.24
2019-03-10T04:13:27.592Z,74.14
2019-03-10T04:14:27.616Z,73.95
2019-03-10T04:15:27.677Z,73.66
2019-03-10T04:16:27.670Z,74.24
2019-03-10T04:17:27.402Z,74.14
2019-03-10T04:18:27.685Z,73.38
2019-03-10T04:19:27.458Z,73.95
2019-03-10T04:20:27.455Z,73.76
2019-03-10T04:21:27.483Z,74.14
2019-03-10T04:22:27.497Z,73.76
2019-03-10T04:23:27.554Z,74.24
2019-03-10T04:24:27.539Z,74.04
2019-03-10T04:25:27.583Z,73.76
2019-03-10T04:26:27.573Z,73.76
2019-03-10T04:27:27.590Z,73.85
2019-03-10T04:28:27.889Z,73.76
2019-03-10T04:29:27.663Z,73.85
2019-03-10T04:30:27.909Z,73.85
2019-03-10T04:31:27.975Z,73.85
2019-03-10T04:32:27.940Z,73.85
2019-03-10T04:33:27.701Z,73.85
2019-03-10T04:34:27.713Z,73.85
2019-03-10T04:35:27.997Z,74.04
2019-03-10T04:36:28.012Z,74.04
2019-03-10T04:37:28.033Z,73.85
2019-03-10T04:38:28.050Z,73.85
2019-03-10T04:39:28.066Z,73.95
2019-03-10T04:40:28.118Z,74.04
2019-03-10T04:41:28.100Z,73.95
2019-03-10T04:42:27.858Z,73.95
2019-03-10T04:43:28.149Z,73.85
2019-03-10T04:44:27.898Z,73.85
2019-03-10T04:45:27.914Z,73.85
2019-03-10T04:46:27.934Z,74.04
2019-03-10T04:47:27.949Z,73.57
2019-03-10T04:48:27.968Z,73.57
2019-03-10T04:49:27.989Z,73.95
2019-03-10T04:50:28.269Z,74.04
2019-03-10T04:51:28.285Z,73.95
2019-03-10T04:52:28.306Z,74.04
2019-03-10T04:53:28.422Z,73.66
2019-03-10T04:54:28.344Z,73.66
2019-03-10T04:55:28.364Z,73.66
2019-03-10T04:56:28.434Z,73.76
2019-03-10T04:57:28.134Z,73.85
2019-03-10T04:58:28.152Z,73.76
2019-03-10T04:59:28.187Z,73.76
2019-03-10T05:00:28.189Z,73.85
2019-03-10T05:01:28.207Z,73.85
2019-03-10T05:02:28.225Z,73.85
2019-03-10T05:03:28.255Z,73.85
2019-03-10T05:04:28.270Z,73.76
2019-03-10T05:05:28.286Z,73.85
2019-03-10T05:06:28.565Z,73.85
2019-03-10T05:07:28.316Z,73.76
2019-03-10T05:08:28.597Z,73.85
2019-03-10T05:09:28.615Z,73.66
2019-03-10T05:10:28.636Z,73.85
2019-03-10T05:11:28.660Z,73.85
2019-03-10T05:12:28.671Z,73.76
2019-03-10T05:13:28.691Z,73.76
2019-03-10T05:14:28.712Z,73.76
2019-03-10T05:15:28.462Z,73.76
2019-03-10T05:16:28.742Z,73.85
2019-03-10T05:17:28.505Z,73.76
2019-03-10T05:18:28.781Z,73.95
2019-03-10T05:19:28.802Z,74.14
2019-03-10T05:20:28.835Z,73.95
2019-03-10T05:21:28.860Z,73.85
2019-03-10T05:22:28.857Z,74.14
2019-03-10T05:23:28.873Z,74.04
2019-03-10T05:24:28.914Z,74.14
2019-03-10T05:25:28.932Z,74.24
2019-03-10T05:26:28.952Z,74.04
2019-03-10T05:27:28.950Z,74.14
2019-03-10T05:28:28.966Z,74.04
2019-03-10T05:29:28.720Z,74.33
2019-03-10T05:30:29.002Z,74.33
2019-03-10T05:31:28.755Z,74.04
2019-03-10T05:32:29.158Z,74.33
2019-03-10T05:33:28.793Z,74.04
2019-03-10T05:34:28.825Z,74.04
2019-03-10T05:35:28.829Z,74.33
2019-03-10T05:36:28.846Z,73.85
2019-03-10T05:37:29.277Z,74.33
2019-03-10T05:38:28.887Z,73.95
2019-03-10T05:39:28.900Z,74.14
2019-03-10T05:40:28.919Z,74.04
2019-03-10T05:41:28.951Z,74.24
2019-03-10T05:42:29.326Z,74.33
2019-03-10T05:43:28.974Z,74.04
2019-03-10T05:44:29.260Z,74.24
2019-03-10T05:45:29.017Z,74.24
2019-03-10T05:46:29.032Z,74.14
2019-03-10T05:47:29.314Z,73.85
2019-03-10T05:48:29.070Z,74.33
2019-03-10T05:49:29.092Z,74.43
2019-03-10T05:50:29.108Z,74.04
2019-03-10T05:51:29.122Z,73.85
2019-03-10T05:52:29.145Z,74.24
2019-03-10T05:53:29.265Z,74.04
2019-03-10T05:54:29.177Z,73.95
2019-03-10T05:55:29.193Z,74.14
2019-03-10T05:56:29.271Z,74.24
2019-03-10T05:57:29.283Z,74.14
2019-03-10T05:58:29.254Z,74.24
2019-03-10T05:59:29.529Z,74.14
2019-03-10T06:00:29.291Z,73.95
2019-03-10T06:01:29.311Z,74.14
2019-03-10T06:02:29.328Z,74.04
2019-03-10T06:03:29.346Z,74.14
2019-03-10T06:04:29.358Z,74.33
2019-03-10T06:05:29.378Z,74.14
2019-03-10T06:06:29.397Z,74.33
2019-03-10T06:07:29.681Z,74.24
2019-03-10T06:08:29.695Z,74.14
2019-03-10T06:09:29.710Z,73.95
2019-03-10T06:10:29.732Z,73.95
2019-03-10T06:11:29.748Z,74.04
2019-03-10T06:12:29.766Z,74.52
2019-03-10T06:13:29.786Z,74.04
2019-03-10T06:14:29.540Z,74.04
2019-03-10T06:15:29.824Z,74.04
2019-03-10T06:16:29.841Z,73.95
2019-03-10T06:17:29.596Z,73.66
2019-03-10T06:18:29.876Z,74.04
2019-03-10T06:19:29.635Z,74.33
2019-03-10T06:20:29.648Z,74.33
2019-03-10T06:21:29.678Z,73.66
2019-03-10T06:22:29.698Z,74.52
2019-03-10T06:23:29.705Z,74.24
2019-03-10T06:24:29.723Z,74.43
2019-03-10T06:25:29.745Z,74.33
2019-03-10T06:26:29.763Z,74.29
2019-03-10T06:27:30.057Z,74.33
2019-03-10T06:28:30.059Z,74.52
2019-03-10T06:29:29.848Z,74.43
2019-03-10T06:30:30.097Z,73.66
2019-03-10T06:31:29.853Z,74.43
2019-03-10T06:32:29.869Z,74.33
2019-03-10T06:33:30.149Z,73.76
2019-03-10T06:34:30.168Z,74.43
2019-03-10T06:35:30.189Z,74.24
2019-03-10T06:36:30.205Z,74.33
2019-03-10T06:37:29.963Z,74.43
2019-03-10T06:38:29.981Z,74.33
2019-03-10T06:39:29.997Z,74.62
2019-03-10T06:40:34.841Z,74.43
2019-03-10T06:41:30.034Z,74.43
2019-03-10T06:42:30.052Z,74.52
2019-03-10T06:43:30.070Z,74.43
2019-03-10T06:44:30.086Z,74.24
2019-03-10T06:45:30.373Z,74.43
2019-03-10T06:46:30.388Z,74.43
2019-03-10T06:47:30.403Z,74.62
2019-03-10T06:48:30.423Z,74.62
2019-03-10T06:49:30.446Z,74.29
2019-03-10T06:50:30.201Z,74.43
2019-03-10T06:51:30.215Z,74.24
2019-03-10T06:52:30.282Z,74.24
2019-03-10T06:53:30.251Z,74.33
2019-03-10T06:54:30.268Z,74.33
2019-03-10T06:55:30.552Z,74.24
2019-03-10T06:56:30.566Z,74.24
2019-03-10T06:57:30.586Z,74.14
2019-03-10T06:58:30.625Z,74.43
2019-03-10T06:59:30.624Z,74.14
2019-03-10T07:00:30.380Z,74.14
2019-03-10T07:01:30.400Z,74.04
2019-03-10T07:02:30.423Z,74.14
2019-03-10T07:03:30.439Z,74.52
2019-03-10T07:04:30.450Z,74.39
2019-03-10T07:05:30.729Z,74.14
2019-03-10T07:06:30.749Z,74.14
2019-03-10T07:07:30.768Z,74.04
2019-03-10T07:08:32.541Z,74.14
2019-03-10T07:09:30.806Z,74.43
2019-03-10T07:10:30.561Z,73.91
2019-03-10T07:11:30.578Z,73.95
2019-03-10T07:12:30.596Z,74.24
2019-03-10T07:13:30.618Z,74.24
2019-03-10T07:14:30.638Z,74.14
2019-03-10T07:15:30.915Z,74.14
2019-03-10T07:16:30.942Z,74.24
2019-03-10T07:17:30.949Z,74.04
2019-03-10T07:18:30.967Z,74.24
2019-03-10T07:19:31.025Z,74.33
2019-03-10T07:20:30.746Z,74.24
2019-03-10T07:21:30.763Z,74.04
2019-03-10T07:22:30.783Z,74.14
2019-03-10T07:23:30.797Z,74.33
2019-03-10T07:24:30.815Z,74.33
2019-03-10T07:25:30.863Z,74.14
2019-03-10T07:26:31.120Z,74.29
2019-03-10T07:27:31.133Z,74.52
2019-03-10T07:28:30.889Z,74.71
2019-03-10T07:29:30.906Z,74.67
2019-03-10T07:30:30.924Z,74.8
2019-03-10T07:31:30.942Z,74.8
2019-03-10T07:32:30.962Z,74.9
2019-03-10T07:33:30.980Z,74.71
2019-03-10T07:34:31.261Z,74.9
2019-03-10T07:35:31.331Z,74.8
2019-03-10T07:36:31.296Z,74.62
2019-03-10T07:37:31.316Z,74.8
2019-03-10T07:38:31.335Z,74.52
2019-03-10T07:39:31.112Z,74.71
2019-03-10T07:40:31.125Z,74.71
2019-03-10T07:41:31.122Z,74.62
2019-03-10T07:42:31.146Z,74.52
2019-03-10T07:43:31.422Z,74.62
2019-03-10T07:44:31.454Z,74.71
2019-03-10T07:45:31.462Z,74.52
2019-03-10T07:46:31.478Z,74.71
2019-03-10T07:47:31.495Z,74.71
2019-03-10T07:48:31.517Z,74.71
2019-03-10T07:49:31.531Z,74.52
2019-03-10T07:50:31.286Z,74.71
2019-03-10T07:51:31.362Z,74.52
2019-03-10T07:52:31.583Z,74.33
2019-03-10T07:53:31.342Z,74.62
2019-03-10T07:54:31.361Z,74.71
2019-03-10T07:55:31.378Z,74.52
2019-03-10T07:56:31.663Z,74.52
2019-03-10T07:57:31.678Z,74.71
2019-03-10T07:58:31.434Z,74.9
2019-03-10T07:59:31.715Z,74.67
2019-03-10T08:00:31.738Z,74.71
2019-03-10T08:01:31.858Z,74.71
2019-03-10T08:02:31.505Z,74.99
2019-03-10T08:03:31.798Z,74.62
2019-03-10T08:04:31.854Z,74.52
2019-03-10T08:05:31.830Z,74.62
2019-03-10T08:06:31.577Z,74.8
2019-03-10T08:07:31.596Z,74.9
2019-03-10T08:08:31.876Z,74.9
2019-03-10T08:09:31.906Z,74.52
2019-03-10T08:10:31.921Z,74.71
2019-03-10T08:11:31.932Z,74.24
2019-03-10T08:12:31.689Z,74.8
2019-03-10T08:13:31.705Z,74.14
2019-03-10T08:14:31.987Z,74.33
2019-03-10T08:15:32.012Z,74.33
2019-03-10T08:16:31.763Z,73.95
2019-03-10T08:17:32.043Z,74.14
2019-03-10T08:18:32.062Z,74.33
2019-03-10T08:19:32.086Z,74.24
2019-03-10T08:20:32.105Z,74.33
2019-03-10T08:21:31.854Z,74.24
2019-03-10T08:22:32.135Z,74.43
2019-03-10T08:23:32.156Z,74.43
2019-03-10T08:24:32.168Z,74.33
2019-03-10T08:25:32.188Z,74.62
2019-03-10T08:26:32.214Z,74.33
2019-03-10T08:27:32.259Z,74.24
2019-03-10T08:28:32.248Z,74.33
2019-03-10T08:29:32.264Z,74.62
2019-03-10T08:30:32.017Z,74.43
2019-03-10T08:31:32.095Z,74.52
2019-03-10T08:32:32.052Z,74.33
2019-03-10T08:33:32.072Z,74.43
2019-03-10T08:34:32.092Z,74.33
2019-03-10T08:35:32.110Z,74.43
2019-03-10T08:36:32.126Z,74.43
2019-03-10T08:37:32.159Z,74.24
2019-03-10T08:38:32.425Z,74.62
2019-03-10T08:39:32.452Z,74.62
2019-03-10T08:40:32.464Z,74.71
2019-03-10T08:41:32.487Z,74.33
2019-03-10T08:42:32.500Z,74.52
2019-03-10T08:43:32.407Z,74.14
2019-03-10T08:44:32.271Z,74.43
2019-03-10T08:45:32.565Z,74.24
2019-03-10T08:46:32.409Z,74.14
2019-03-10T08:47:32.419Z,74.04
2019-03-10T08:48:32.710Z,74.04
2019-03-10T08:49:32.424Z,74.04
2019-03-10T08:50:32.440Z,74.14
2019-03-10T08:51:32.400Z,74.24
2019-03-10T08:52:32.685Z,74.04
2019-03-10T08:53:32.701Z,74.04
2019-03-10T08:54:32.774Z,74.04
2019-03-10T08:55:32.752Z,74.14
2019-03-10T08:56:32.770Z,74.04
2019-03-10T08:57:32.787Z,74.14
2019-03-10T08:58:32.796Z,74.14
2019-03-10T08:59:32.550Z,74.33
2019-03-10T09:00:32.571Z,74.33
2019-03-10T09:01:32.851Z,74.52
2019-03-10T09:02:32.603Z,74.43
2019-03-10T09:03:32.621Z,74.33
2019-03-10T09:04:32.904Z,74.14
2019-03-10T09:05:32.923Z,74.33
2019-03-10T09:06:32.682Z,74.43
2019-03-10T09:07:32.962Z,74.52
2019-03-10T09:08:32.976Z,74.43
2019-03-10T09:09:32.994Z,74.33
2019-03-10T09:10:33.015Z,74.33
2019-03-10T09:11:32.780Z,74.04
2019-03-10T09:12:32.789Z,74.04
2019-03-10T09:13:32.808Z,73.95
2019-03-10T09:14:33.089Z,74.04
2019-03-10T09:15:33.111Z,74.04
2019-03-10T09:16:33.129Z,74.14
2019-03-10T09:17:33.156Z,74.24
2019-03-10T09:18:33.162Z,74.43
2019-03-10T09:19:32.920Z,74.24
2019-03-10T09:20:32.945Z,74.24
2019-03-10T09:21:32.953Z,74.33
2019-03-10T09:22:32.973Z,74.52
2019-03-10T09:23:32.990Z,74.52
2019-03-10T09:24:33.272Z,74.52
2019-03-10T09:25:33.290Z,74.43
2019-03-10T09:26:33.311Z,74.33
2019-03-10T09:27:33.326Z,74.43
2019-03-10T09:28:33.093Z,74.33
2019-03-10T09:29:33.101Z,74.62
2019-03-10T09:30:33.121Z,74.62
2019-03-10T09:31:33.140Z,74.43
2019-03-10T09:32:33.419Z,74.43
2019-03-10T09:33:33.438Z,74.43
2019-03-10T09:34:33.458Z,74.52
2019-03-10T09:35:33.471Z,74.24
2019-03-10T09:36:33.229Z,74.33
2019-03-10T09:37:33.248Z,74.43
2019-03-10T09:38:33.270Z,73.95
2019-03-10T09:39:33.286Z,74.24
2019-03-10T09:40:33.307Z,74.43
2019-03-10T09:41:33.592Z,74.33
2019-03-10T09:42:33.601Z,74.24
2019-03-10T09:43:33.621Z,74.52
2019-03-10T09:44:33.379Z,74.24
2019-03-10T09:45:33.396Z,74.52
2019-03-10T09:46:33.413Z,74.33
2019-03-10T09:47:33.694Z,74.33
2019-03-10T09:48:33.713Z,74.33
2019-03-10T09:49:33.730Z,74.43
2019-03-10T09:50:33.510Z,74.24
2019-03-10T09:51:33.504Z,74.52
2019-03-10T09:52:33.524Z,74.43
2019-03-10T09:53:33.543Z,74.14
2019-03-10T09:54:33.825Z,73.95
2019-03-10T09:55:33.583Z,74.14
2019-03-10T09:56:33.654Z,73.95
2019-03-10T09:57:33.615Z,74.24
2019-03-10T09:58:33.897Z,74.33
2019-03-10T09:59:33.916Z,74.14
2019-03-10T10:00:33.937Z,74.14
2019-03-10T10:01:33.690Z,74.24
2019-03-10T10:02:33.972Z,74.24
2019-03-10T10:03:33.729Z,74.04
2019-03-10T10:04:34.008Z,74.14
2019-03-10T10:05:34.027Z,73.66
2019-03-10T10:06:33.782Z,74.33
2019-03-10T10:07:34.070Z,74.43
2019-03-10T10:08:33.820Z,74.43
2019-03-10T10:09:33.838Z,74.43
2019-03-10T10:10:33.858Z,74.33
2019-03-10T10:11:34.136Z,74.33
2019-03-10T10:12:33.906Z,74.43
2019-03-10T10:13:33.913Z,74.43
2019-03-10T10:14:33.932Z,74.33
2019-03-10T10:15:34.218Z,74.33
2019-03-10T10:16:34.234Z,74.33
2019-03-10T10:17:34.253Z,74.43
2019-03-10T10:18:34.004Z,74.43
2019-03-10T10:19:34.286Z,74.43
2019-03-10T10:20:34.304Z,74.43
2019-03-10T10:21:34.322Z,74.43
2019-03-10T10:22:34.338Z,74.24
2019-03-10T10:23:34.097Z,74.43
2019-03-10T10:24:34.118Z,74.24
2019-03-10T10:25:34.398Z,74.33
2019-03-10T10:26:34.413Z,74.62
2019-03-10T10:27:34.180Z,74.24
2019-03-10T10:28:34.187Z,74.62
2019-03-10T10:29:34.471Z,74.43
2019-03-10T10:30:34.490Z,74.24
2019-03-10T10:31:34.246Z,74.14
2019-03-10T10:32:34.267Z,74.14
2019-03-10T10:33:34.282Z,73.95
2019-03-10T10:34:34.564Z,74.14
2019-03-10T10:35:34.581Z,74.43
2019-03-10T10:36:34.338Z,74.33
2019-03-10T10:37:35.480Z,74.24
2019-03-10T10:38:34.638Z,74.71
2019-03-10T10:39:34.658Z,74.24
2019-03-10T10:40:34.410Z,74.43
2019-03-10T10:41:34.430Z,73.8
2019-03-10T10:42:34.711Z,74.37
2019-03-10T10:43:34.731Z,73.99
2019-03-10T10:44:34.485Z,74.18
2019-03-10T10:45:34.776Z,73.99
2019-03-10T10:46:34.525Z,73.8
2019-03-10T10:47:34.805Z,74.18
2019-03-10T10:48:34.572Z,74.18
2019-03-10T10:49:34.852Z,73.7
2019-03-10T10:50:34.864Z,73.89
2019-03-10T10:51:34.634Z,73.8
2019-03-10T10:52:34.652Z,73.32
2019-03-10T10:53:34.929Z,73.41
2019-03-10T10:54:34.680Z,73.32
2019-03-10T10:55:34.971Z,73.13
2019-03-10T10:56:34.712Z,73.32
2019-03-10T10:57:34.746Z,73.51
2019-03-10T10:58:35.016Z,73.41
2019-03-10T10:59:34.766Z,73.41
2019-03-10T11:00:34.787Z,73.13
2019-03-10T11:01:35.069Z,73.22
2019-03-10T11:02:34.851Z,72.85
2019-03-10T11:03:34.847Z,73.13
2019-03-10T11:04:35.134Z,73.13
2019-03-10T11:05:34.890Z,73.32
2019-03-10T11:06:35.165Z,73.03
2019-03-10T11:07:35.189Z,73.32
2019-03-10T11:08:34.957Z,73.32
2019-03-10T11:09:35.220Z,73.41
2019-03-10T11:10:35.239Z,73.41
2019-03-10T11:11:35.259Z,73.32
2019-03-10T11:12:35.291Z,73.32
2019-03-10T11:13:35.029Z,73.22
2019-03-10T11:14:35.315Z,73.32
2019-03-10T11:15:35.076Z,73.32
2019-03-10T11:16:35.090Z,73.32
2019-03-10T11:17:35.116Z,73.32
2019-03-10T11:18:35.145Z,73.51
2019-03-10T11:19:35.150Z,73.22
2019-03-10T11:20:35.163Z,73.32
2019-03-10T11:21:35.189Z,73.32
2019-03-10T11:22:35.465Z,73.32
2019-03-10T11:23:35.223Z,73.32
2019-03-10T11:24:35.501Z,73.32
2019-03-10T11:25:35.257Z,73.32
2019-03-10T11:26:35.279Z,73.22
2019-03-10T11:27:35.561Z,73.32
2019-03-10T11:28:35.583Z,73.41
2019-03-10T11:29:35.334Z,73.41
2019-03-10T11:30:35.356Z,73.32
2019-03-10T11:31:35.639Z,73.41
2019-03-10T11:32:35.655Z,73.41
2019-03-10T11:33:35.416Z,73.32
2019-03-10T11:34:35.692Z,73.41
2019-03-10T11:35:35.739Z,73.32
2019-03-10T11:36:35.468Z,72.94
2019-03-10T11:37:35.747Z,73.22
2019-03-10T11:38:37.092Z,73.41
2019-03-10T11:39:35.788Z,73.22
2019-03-10T11:40:35.544Z,73.51
2019-03-10T11:41:36.770Z,73.41
2019-03-10T11:42:35.584Z,73.61
2019-03-10T11:43:35.865Z,73.89
2019-03-10T11:44:35.617Z,73.89
2019-03-10T11:45:35.635Z,73.7
2019-03-10T11:46:35.917Z,74.18
2019-03-10T11:47:35.675Z,73.89
2019-03-10T11:48:35.966Z,74.18
2019-03-10T11:49:35.975Z,74.37
2019-03-10T11:50:35.729Z,74.46
2019-03-10T11:51:35.751Z,74.37
2019-03-10T11:52:35.766Z,74.65
2019-03-10T11:53:35.794Z,74.18
2019-03-10T11:54:35.807Z,74.18
2019-03-10T11:55:35.826Z,73.99
2019-03-10T11:56:36.107Z,74.46
2019-03-10T11:57:36.124Z,74.18
2019-03-10T11:58:35.889Z,74.27
2019-03-10T11:59:36.166Z,74.46
2019-03-10T12:00:36.186Z,74.08
2019-03-10T12:01:36.200Z,74.37
2019-03-10T12:02:36.223Z,74.37
2019-03-10T12:03:35.982Z,74.37
2019-03-10T12:04:36.261Z,74.56
2019-03-10T12:05:36.277Z,74.75
2019-03-10T12:06:36.295Z,74.75
2019-03-10T12:07:36.320Z,74.75
2019-03-10T12:08:36.333Z,74.75
2019-03-10T12:09:36.356Z,74.56
2019-03-10T12:10:36.374Z,74.56
2019-03-10T12:11:36.391Z,74.56
2019-03-10T12:12:36.152Z,74.56
2019-03-10T12:13:36.433Z,74.75
2019-03-10T12:14:36.193Z,74.84
2019-03-10T12:15:36.467Z,74.75
2019-03-10T12:16:36.220Z,74.84
2019-03-10T12:17:36.515Z,75.13
2019-03-10T12:18:36.266Z,74.75
2019-03-10T12:19:36.539Z,75.04
2019-03-10T12:20:36.297Z,74.94
2019-03-10T12:21:36.581Z,74.94
2019-03-10T12:22:36.599Z,75.13
2019-03-10T12:23:36.354Z,75.13
2019-03-10T12:24:36.642Z,75.04
2019-03-10T12:25:36.405Z,74.65
2019-03-10T12:26:36.678Z,74.94
2019-03-10T12:27:36.455Z,74.37
2019-03-10T12:28:36.717Z,74.18
2019-03-10T12:29:36.727Z,74.27
2019-03-10T12:30:36.510Z,74.37
2019-03-10T12:31:36.766Z,74.08
2019-03-10T12:32:36.523Z,74.37
2019-03-10T12:33:36.541Z,73.83
2019-03-10T12:34:36.824Z,74.02
2019-03-10T12:35:37.401Z,73.83
2019-03-10T12:36:36.721Z,74.02
2019-03-10T12:37:36.615Z,73.45
2019-03-10T12:38:36.902Z,73.83
2019-03-10T12:39:36.927Z,73.36
2019-03-10T12:40:36.675Z,73.8
2019-03-10T12:41:36.694Z,73.8
2019-03-10T12:42:36.974Z,73.99
2019-03-10T12:43:36.997Z,74.12
2019-03-10T12:44:36.808Z,73.74
2019-03-10T12:45:36.771Z,73.89
2019-03-10T12:46:37.053Z,74.27
2019-03-10T12:47:36.810Z,73.8
2019-03-10T12:48:37.091Z,73.99
2019-03-10T12:49:37.113Z,73.8
2019-03-10T12:50:37.129Z,73.99
2019-03-10T12:51:36.884Z,74.02
2019-03-10T12:52:36.899Z,74.08
2019-03-10T12:53:37.186Z,73.89